sensor_id;sensor_type;location;lat;lon;timestamp;pressure;altitude;pressure_sealevel;temperature;humidity
55032;BME280;40928;51.076;7.950;2023-04-09T00:01:53;97904.56;;;4.36;100.00
55032;BME280;40928;51.076;7.950;2023-04-09T00:04:19;97903.38;;;4.38;100.00
55032;BME280;40928;51.076;7.950;2023-04-09T00:06:47;97903.88;;;4.42;100.00
55032;BME280;40928;51.076;7.950;2023-04-09T00:09:12;97895.09;;;4.41;100.00
55032;BME280;40928;51.076;7.950;2023-04-09T00:11:38;97899.03;;;4.46;100.00
55032;BME280;40928;51.076;7.950;2023-04-09T00:14:04;97896.03;;;4.49;100.00
55032;BME280;40928;51.076;7.950;2023-04-09T00:16:30;97894.41;;;4.48;100.00
55032;BME280;40928;51.076;7.950;2023-04-09T00:18:56;97894.41;;;4.48;100.00
55032;BME280;40928;51.076;7.950;2023-04-09T00:21:22;97894.41;;;4.48;100.00
55032;BME280;40928;51.076;7.950;2023-04-09T00:23:47;97876.13;;;4.38;100.00
55032;BME280;40928;51.076;7.950;2023-04-09T00:26:13;97891.47;;;4.42;100.00
55032;BME280;40928;51.076;7.950;2023-04-09T00:28:40;97888.63;;;4.44;100.00
55032;BME280;40928;51.076;7.950;2023-04-09T00:31:06;97889.00;;;4.41;100.00
55032;BME280;40928;51.076;7.950;2023-04-09T00:33:31;97887.50;;;4.38;100.00
55032;BME280;40928;51.076;7.950;2023-04-09T00:35:57;97885.88;;;4.37;100.00
55032;BME280;40928;51.076;7.950;2023-04-09T00:38:23;97885.25;;;4.35;100.00
55032;BME280;40928;51.076;7.950;2023-04-09T00:40:49;97879.31;;;4.33;100.00
55032;BME280;40928;51.076;7.950;2023-04-09T00:43:18;97884.94;;;4.30;100.00
55032;BME280;40928;51.076;7.950;2023-04-09T00:45:44;97878.00;;;4.29;100.00
55032;BME280;40928;51.076;7.950;2023-04-09T00:48:11;97882.00;;;4.25;100.00
55032;BME280;40928;51.076;7.950;2023-04-09T00:50:37;97885.00;;;4.22;100.00
55032;BME280;40928;51.076;7.950;2023-04-09T00:53:06;97878.59;;;4.16;100.00
55032;BME280;40928;51.076;7.950;2023-04-09T00:55:33;97879.13;;;4.11;100.00
55032;BME280;40928;51.076;7.950;2023-04-09T00:58:00;97884.59;;;4.10;100.00
55032;BME280;40928;51.076;7.950;2023-04-09T01:00:26;97882.72;;;3.95;100.00
55032;BME280;40928;51.076;7.950;2023-04-09T01:02:55;97884.59;;;3.87;100.00
55032;BME280;40928;51.076;7.950;2023-04-09T01:05:37;97884.63;;;3.78;100.00
55032;BME280;40928;51.076;7.950;2023-04-09T01:08:11;97878.56;;;3.70;100.00
55032;BME280;40928;51.076;7.950;2023-04-09T01:10:45;97882.06;;;3.62;100.00
55032;BME280;40928;51.076;7.950;2023-04-09T01:13:17;97882.78;;;3.56;100.00
55032;BME280;40928;51.076;7.950;2023-04-09T01:15:51;97882.50;;;3.42;100.00
55032;BME280;40928;51.076;7.950;2023-04-09T01:18:28;97877.25;;;3.34;100.00
55032;BME280;40928;51.076;7.950;2023-04-09T01:21:22;97880.91;;;3.25;100.00
55032;BME280;40928;51.076;7.950;2023-04-09T01:24:18;97875.50;;;3.18;100.00
55032;BME280;40928;51.076;7.950;2023-04-09T01:29:14;97883.63;;;3.00;100.00
55032;BME280;40928;51.076;7.950;2023-04-09T01:31:43;97878.66;;;2.97;100.00
55032;BME280;40928;51.076;7.950;2023-04-09T01:34:10;97878.19;;;2.93;100.00
55032;BME280;40928;51.076;7.950;2023-04-09T01:36:37;97876.25;;;2.87;100.00
55032;BME280;40928;51.076;7.950;2023-04-09T01:39:07;97882.84;;;2.83;100.00
55032;BME280;40928;51.076;7.950;2023-04-09T01:41:34;97879.41;;;2.74;100.00
55032;BME280;40928;51.076;7.950;2023-04-09T01:44:01;97880.41;;;2.65;100.00
55032;BME280;40928;51.076;7.950;2023-04-09T01:46:28;97873.97;;;2.59;100.00
55032;BME280;40928;51.076;7.950;2023-04-09T01:48:55;97877.94;;;2.55;100.00
55032;BME280;40928;51.076;7.950;2023-04-09T01:51:24;97881.56;;;2.46;100.00
55032;BME280;40928;51.076;7.950;2023-04-09T01:53:51;97873.16;;;2.34;100.00
55032;BME280;40928;51.076;7.950;2023-04-09T01:56:17;97876.13;;;2.31;100.00
55032;BME280;40928;51.076;7.950;2023-04-09T01:58:42;97882.06;;;2.24;100.00
55032;BME280;40928;51.076;7.950;2023-04-09T02:01:31;97875.63;;;2.19;100.00
55032;BME280;40928;51.076;7.950;2023-04-09T02:04:01;97884.19;;;2.12;100.00
55032;BME280;40928;51.076;7.950;2023-04-09T02:06:47;97879.56;;;2.15;100.00
55032;BME280;40928;51.076;7.950;2023-04-09T02:09:19;97879.09;;;2.11;100.00
55032;BME280;40928;51.076;7.950;2023-04-09T02:11:47;97886.16;;;2.10;100.00
55032;BME280;40928;51.076;7.950;2023-04-09T02:14:14;97880.06;;;2.10;100.00
55032;BME280;40928;51.076;7.950;2023-04-09T02:16:40;97882.38;;;2.05;100.00
55032;BME280;40928;51.076;7.950;2023-04-09T02:19:06;97880.22;;;2.00;100.00
55032;BME280;40928;51.076;7.950;2023-04-09T02:21:32;97889.94;;;2.00;100.00
55032;BME280;40928;51.076;7.950;2023-04-09T02:23:58;97877.25;;;1.95;100.00
55032;BME280;40928;51.076;7.950;2023-04-09T02:26:23;97880.53;;;1.89;100.00
55032;BME280;40928;51.076;7.950;2023-04-09T02:28:49;97878.38;;;1.76;100.00
55032;BME280;40928;51.076;7.950;2023-04-09T02:31:15;97877.88;;;1.72;100.00
55032;BME280;40928;51.076;7.950;2023-04-09T02:33:41;97868.63;;;1.68;100.00
55032;BME280;40928;51.076;7.950;2023-04-09T02:36:10;97875.06;;;1.65;100.00
55032;BME280;40928;51.076;7.950;2023-04-09T02:38:40;97877.34;;;1.60;100.00
55032;BME280;40928;51.076;7.950;2023-04-09T02:41:13;97874.38;;;1.55;100.00
55032;BME280;40928;51.076;7.950;2023-04-09T02:43:38;97883.88;;;1.48;100.00
55032;BME280;40928;51.076;7.950;2023-04-09T02:46:07;97870.06;;;1.46;100.00
55032;BME280;40928;51.076;7.950;2023-04-09T02:48:34;97869.91;;;1.47;100.00
55032;BME280;40928;51.076;7.950;2023-04-09T02:50:59;97875.31;;;1.46;100.00
55032;BME280;40928;51.076;7.950;2023-04-09T02:53:25;97870.22;;;1.44;100.00
55032;BME280;40928;51.076;7.950;2023-04-09T02:55:50;97867.59;;;1.44;100.00
55032;BME280;40928;51.076;7.950;2023-04-09T02:58:16;97865.59;;;1.38;100.00
55032;BME280;40928;51.076;7.950;2023-04-09T03:00:41;97864.53;;;1.23;100.00
55032;BME280;40928;51.076;7.950;2023-04-09T03:03:10;97863.22;;;1.18;100.00
55032;BME280;40928;51.076;7.950;2023-04-09T03:05:36;97860.75;;;1.17;100.00
55032;BME280;40928;51.076;7.950;2023-04-09T03:08:02;97850.19;;;1.09;100.00
55032;BME280;40928;51.076;7.950;2023-04-09T03:10:28;97855.28;;;1.10;100.00
55032;BME280;40928;51.076;7.950;2023-04-09T03:12:53;97856.94;;;1.11;100.00
55032;BME280;40928;51.076;7.950;2023-04-09T03:15:20;97856.59;;;1.06;100.00
55032;BME280;40928;51.076;7.950;2023-04-09T03:17:45;97856.25;;;1.01;100.00
55032;BME280;40928;51.076;7.950;2023-04-09T03:20:11;97850.47;;;0.97;100.00
55032;BME280;40928;51.076;7.950;2023-04-09T03:22:37;97848.81;;;0.96;100.00
55032;BME280;40928;51.076;7.950;2023-04-09T03:25:23;97852.41;;;0.95;100.00
55032;BME280;40928;51.076;7.950;2023-04-09T03:27:52;97844.69;;;0.94;100.00
55032;BME280;40928;51.076;7.950;2023-04-09T03:30:30;97848.09;;;0.86;100.00
55032;BME280;40928;51.076;7.950;2023-04-09T03:32:57;97841.16;;;0.77;100.00
55032;BME280;40928;51.076;7.950;2023-04-09T03:35:24;97848.38;;;0.74;100.00
55032;BME280;40928;51.076;7.950;2023-04-09T03:37:56;97850.72;;;0.78;100.00
55032;BME280;40928;51.076;7.950;2023-04-09T03:40:21;97844.91;;;0.74;100.00
55032;BME280;40928;51.076;7.950;2023-04-09T03:42:47;97849.84;;;0.69;100.00
55032;BME280;40928;51.076;7.950;2023-04-09T03:45:14;97847.19;;;0.69;100.00
55032;BME280;40928;51.076;7.950;2023-04-09T03:47:43;97839.44;;;0.67;100.00
55032;BME280;40928;51.076;7.950;2023-04-09T03:50:13;97847.00;;;0.62;100.00
55032;BME280;40928;51.076;7.950;2023-04-09T03:52:59;97839.41;;;0.59;100.00
55032;BME280;40928;51.076;7.950;2023-04-09T03:55:26;97842.84;;;0.59;100.00
55032;BME280;40928;51.076;7.950;2023-04-09T03:57:52;97842.84;;;0.59;100.00
55032;BME280;40928;51.076;7.950;2023-04-09T04:00:29;97841.75;;;0.62;100.00
55032;BME280;40928;51.076;7.950;2023-04-09T04:03:33;97839.94;;;0.63;100.00
55032;BME280;40928;51.076;7.950;2023-04-09T04:06:32;97848.63;;;0.63;100.00
55032;BME280;40928;51.076;7.950;2023-04-09T04:09:11;97842.84;;;0.59;100.00
55032;BME280;40928;51.076;7.950;2023-04-09T04:11:48;97839.03;;;0.54;100.00
55032;BME280;40928;51.076;7.950;2023-04-09T04:14:15;97842.66;;;0.53;100.00
55032;BME280;40928;51.076;7.950;2023-04-09T04:16:44;97841.84;;;0.52;100.00
55032;BME280;40928;51.076;7.950;2023-04-09T04:19:29;97842.44;;;0.46;100.00
55032;BME280;40928;51.076;7.950;2023-04-09T04:21:56;97839.97;;;0.44;100.00
55032;BME280;40928;51.076;7.950;2023-04-09T04:24:22;97838.84;;;0.47;100.00
55032;BME280;40928;51.076;7.950;2023-04-09T04:26:48;97838.84;;;0.47;100.00
55032;BME280;40928;51.076;7.950;2023-04-09T04:29:16;97844.69;;;0.41;100.00
55032;BME280;40928;51.076;7.950;2023-04-09T04:31:57;97840.28;;;0.41;100.00
55032;BME280;40928;51.076;7.950;2023-04-09T04:34:27;97844.69;;;0.41;100.00
55032;BME280;40928;51.076;7.950;2023-04-09T04:37:00;97843.59;;;0.43;100.00
55032;BME280;40928;51.076;7.950;2023-04-09T04:39:30;97850.50;;;0.44;100.00
55032;BME280;40928;51.076;7.950;2023-04-09T04:42:30;97844.19;;;0.37;100.00
55032;BME280;40928;51.076;7.950;2023-04-09T04:44:58;97854.88;;;0.36;100.00
55032;BME280;40928;51.076;7.950;2023-04-09T04:47:45;97860.25;;;0.34;100.00
55032;BME280;40928;51.076;7.950;2023-04-09T04:50:10;97858.31;;;0.36;100.00
55032;BME280;40928;51.076;7.950;2023-04-09T04:52:50;97856.94;;;0.32;100.00
55032;BME280;40928;51.076;7.950;2023-04-09T04:55:15;97843.38;;;0.19;100.00
55032;BME280;40928;51.076;7.950;2023-04-09T04:57:41;97855.34;;;0.31;100.00
55032;BME280;40928;51.076;7.950;2023-04-09T05:00:08;97862.38;;;0.30;100.00
55032;BME280;40928;51.076;7.950;2023-04-09T05:02:34;97863.84;;;0.33;100.00
55032;BME280;40928;51.076;7.950;2023-04-09T05:05:19;97859.28;;;0.35;100.00
55032;BME280;40928;51.076;7.950;2023-04-09T05:07:50;97857.31;;;0.37;100.00
55032;BME280;40928;51.076;7.950;2023-04-09T05:10:16;97857.19;;;0.39;100.00
55032;BME280;40928;51.076;7.950;2023-04-09T05:12:43;97852.28;;;0.44;100.00
55032;BME280;40928;51.076;7.950;2023-04-09T05:15:11;97851.00;;;0.48;100.00
55032;BME280;40928;51.076;7.950;2023-04-09T05:17:37;97858.22;;;0.46;100.00
55032;BME280;40928;51.076;7.950;2023-04-09T05:20:04;97852.44;;;0.42;100.00
55032;BME280;40928;51.076;7.950;2023-04-09T05:22:39;97857.41;;;0.45;100.00
55032;BME280;40928;51.076;7.950;2023-04-09T05:25:08;97851.81;;;0.49;100.00
55032;BME280;40928;51.076;7.950;2023-04-09T05:27:37;97854.81;;;0.54;100.00
55032;BME280;40928;51.076;7.950;2023-04-09T05:30:04;97860.25;;;0.52;100.00
55032;BME280;40928;51.076;7.950;2023-04-09T05:32:31;97852.50;;;0.51;100.00
55032;BME280;40928;51.076;7.950;2023-04-09T05:34:56;97861.44;;;0.58;100.00
55032;BME280;40928;51.076;7.950;2023-04-09T05:37:24;97857.50;;;0.62;100.00
55032;BME280;40928;51.076;7.950;2023-04-09T05:39:51;97852.47;;;0.69;100.00
55032;BME280;40928;51.076;7.950;2023-04-09T05:42:17;97852.81;;;0.74;100.00
55032;BME280;40928;51.076;7.950;2023-04-09T05:44:51;97850.53;;;0.79;100.00
55032;BME280;40928;51.076;7.950;2023-04-09T05:47:22;97847.44;;;0.84;100.00
55032;BME280;40928;51.076;7.950;2023-04-09T05:50:04;97852.09;;;0.90;100.00
55032;BME280;40928;51.076;7.950;2023-04-09T05:52:30;97852.75;;;0.92;100.00
55032;BME280;40928;51.076;7.950;2023-04-09T05:54:56;97860.00;;;0.98;100.00
55032;BME280;40928;51.076;7.950;2023-04-09T05:57:29;97861.03;;;1.05;100.00
55032;BME280;40928;51.076;7.950;2023-04-09T05:59:58;97857.75;;;1.12;100.00
55032;BME280;40928;51.076;7.950;2023-04-09T06:02:24;97860.44;;;1.20;100.00
55032;BME280;40928;51.076;7.950;2023-04-09T06:05:00;97862.59;;;1.33;100.00
55032;BME280;40928;51.076;7.950;2023-04-09T06:07:26;97853.28;;;1.47;100.00
55032;BME280;40928;51.076;7.950;2023-04-09T06:09:51;97852.16;;;1.58;100.00
55032;BME280;40928;51.076;7.950;2023-04-09T06:12:17;97853.69;;;1.69;100.00
55032;BME280;40928;51.076;7.950;2023-04-09T06:14:42;97847.94;;;1.81;100.00
55032;BME280;40928;51.076;7.950;2023-04-09T06:17:08;97853.38;;;1.96;100.00
55032;BME280;40928;51.076;7.950;2023-04-09T06:19:33;97855.19;;;2.12;100.00
55032;BME280;40928;51.076;7.950;2023-04-09T06:22:02;97852.09;;;2.25;100.00
55032;BME280;40928;51.076;7.950;2023-04-09T06:24:30;97855.34;;;2.36;100.00
55032;BME280;40928;51.076;7.950;2023-04-09T06:26:56;97861.97;;;2.48;100.00
55032;BME280;40928;51.076;7.950;2023-04-09T06:29:22;97861.63;;;2.59;100.00
55032;BME280;40928;51.076;7.950;2023-04-09T06:31:50;97857.81;;;2.70;100.00
55032;BME280;40928;51.076;7.950;2023-04-09T06:34:16;97853.50;;;2.78;100.00
55032;BME280;40928;51.076;7.950;2023-04-09T06:36:41;97860.56;;;2.85;100.00
55032;BME280;40928;51.076;7.950;2023-04-09T06:39:14;97855.94;;;2.96;100.00
55032;BME280;40928;51.076;7.950;2023-04-09T06:41:39;97860.84;;;3.07;100.00
55032;BME280;40928;51.076;7.950;2023-04-09T06:44:25;97862.94;;;3.20;100.00
55032;BME280;40928;51.076;7.950;2023-04-09T06:46:50;97859.94;;;3.31;100.00
55032;BME280;40928;51.076;7.950;2023-04-09T06:49:16;97860.34;;;3.43;100.00
55032;BME280;40928;51.076;7.950;2023-04-09T06:51:41;97861.28;;;3.59;100.00
55032;BME280;40928;51.076;7.950;2023-04-09T06:54:07;97866.84;;;3.72;100.00
55032;BME280;40928;51.076;7.950;2023-04-09T06:56:33;97864.44;;;3.86;100.00
55032;BME280;40928;51.076;7.950;2023-04-09T06:58:58;97862.84;;;4.00;100.00
55032;BME280;40928;51.076;7.950;2023-04-09T07:01:24;97861.09;;;4.15;100.00
55032;BME280;40928;51.076;7.950;2023-04-09T07:03:50;97865.91;;;4.35;100.00
55032;BME280;40928;51.076;7.950;2023-04-09T07:06:16;97862.31;;;4.51;100.00
55032;BME280;40928;51.076;7.950;2023-04-09T07:08:42;97863.16;;;4.66;100.00
55032;BME280;40928;51.076;7.950;2023-04-09T07:11:08;97866.06;;;4.71;100.00
55032;BME280;40928;51.076;7.950;2023-04-09T07:13:33;97868.16;;;4.76;100.00
55032;BME280;40928;51.076;7.950;2023-04-09T07:15:59;97868.47;;;4.81;100.00
55032;BME280;40928;51.076;7.950;2023-04-09T07:18:26;97872.19;;;4.87;100.00
55032;BME280;40928;51.076;7.950;2023-04-09T07:20:51;97870.13;;;4.97;100.00
55032;BME280;40928;51.076;7.950;2023-04-09T07:23:18;97861.72;;;5.09;100.00
55032;BME280;40928;51.076;7.950;2023-04-09T07:25:43;97861.53;;;5.25;100.00
55032;BME280;40928;51.076;7.950;2023-04-09T07:28:09;97865.81;;;5.41;100.00
55032;BME280;40928;51.076;7.950;2023-04-09T07:30:36;97879.94;;;5.63;100.00
55032;BME280;40928;51.076;7.950;2023-04-09T07:33:05;97869.56;;;5.84;100.00
55032;BME280;40928;51.076;7.950;2023-04-09T07:35:30;97867.78;;;6.06;100.00
55032;BME280;40928;51.076;7.950;2023-04-09T07:38:00;97873.91;;;6.28;100.00
55032;BME280;40928;51.076;7.950;2023-04-09T07:40:25;97873.19;;;6.41;100.00
55032;BME280;40928;51.076;7.950;2023-04-09T07:42:51;97874.94;;;6.55;100.00
55032;BME280;40928;51.076;7.950;2023-04-09T07:45:18;97878.34;;;6.71;100.00
55032;BME280;40928;51.076;7.950;2023-04-09T07:47:43;97879.25;;;6.85;100.00
55032;BME280;40928;51.076;7.950;2023-04-09T07:50:10;97882.84;;;6.99;100.00
55032;BME280;40928;51.076;7.950;2023-04-09T07:52:36;97884.78;;;7.19;100.00
55032;BME280;40928;51.076;7.950;2023-04-09T07:55:02;97885.44;;;7.27;100.00
55032;BME280;40928;51.076;7.950;2023-04-09T07:57:30;97876.94;;;7.39;100.00
55032;BME280;40928;51.076;7.950;2023-04-09T07:59:56;97878.63;;;7.53;100.00
55032;BME280;40928;51.076;7.950;2023-04-09T08:02:22;97882.38;;;7.72;100.00
55032;BME280;40928;51.076;7.950;2023-04-09T08:04:48;97879.97;;;7.84;100.00
55032;BME280;40928;51.076;7.950;2023-04-09T08:07:14;97877.38;;;8.04;100.00
55032;BME280;40928;51.076;7.950;2023-04-09T08:09:43;97885.38;;;8.25;100.00
55032;BME280;40928;51.076;7.950;2023-04-09T08:12:08;97881.69;;;8.32;100.00
55032;BME280;40928;51.076;7.950;2023-04-09T08:14:35;97891.19;;;8.48;100.00
55032;BME280;40928;51.076;7.950;2023-04-09T08:17:01;97881.97;;;8.58;99.30
55032;BME280;40928;51.076;7.950;2023-04-09T08:19:28;97888.31;;;8.63;96.60
55032;BME280;40928;51.076;7.950;2023-04-09T08:21:53;97896.50;;;8.62;98.05
55032;BME280;40928;51.076;7.950;2023-04-09T08:24:19;97896.91;;;8.65;94.98
55032;BME280;40928;51.076;7.950;2023-04-09T08:26:45;97891.78;;;8.57;91.72
55032;BME280;40928;51.076;7.950;2023-04-09T08:29:11;97894.47;;;8.71;93.34
55032;BME280;40928;51.076;7.950;2023-04-09T08:31:40;97903.47;;;8.76;87.40
55032;BME280;40928;51.076;7.950;2023-04-09T08:34:06;97903.47;;;8.83;87.50
55032;BME280;40928;51.076;7.950;2023-04-09T08:36:32;97894.44;;;8.91;87.35
55032;BME280;40928;51.076;7.950;2023-04-09T08:38:59;97889.72;;;8.99;84.11
55032;BME280;40928;51.076;7.950;2023-04-09T08:41:33;97898.72;;;9.05;85.22
55032;BME280;40928;51.076;7.950;2023-04-09T08:44:00;97892.78;;;9.10;83.58
55032;BME280;40928;51.076;7.950;2023-04-09T08:46:26;97895.03;;;9.20;84.87
55032;BME280;40928;51.076;7.950;2023-04-09T08:48:52;97891.72;;;9.31;82.77
55032;BME280;40928;51.076;7.950;2023-04-09T08:51:20;97892.69;;;9.43;79.12
55032;BME280;40928;51.076;7.950;2023-04-09T08:53:49;97900.47;;;9.52;81.70
55032;BME280;40928;51.076;7.950;2023-04-09T08:56:18;97887.06;;;9.72;78.50
55032;BME280;40928;51.076;7.950;2023-04-09T08:58:46;97884.91;;;9.94;77.42
55032;BME280;40928;51.076;7.950;2023-04-09T09:01:23;97891.16;;;10.13;75.45
55032;BME280;40928;51.076;7.950;2023-04-09T09:03:56;97891.09;;;10.27;73.84
55032;BME280;40928;51.076;7.950;2023-04-09T09:06:23;97886.59;;;10.20;74.65
55032;BME280;40928;51.076;7.950;2023-04-09T09:09:08;97890.13;;;10.14;75.55
55032;BME280;40928;51.076;7.950;2023-04-09T09:11:38;97891.25;;;9.93;74.50
55032;BME280;40928;51.076;7.950;2023-04-09T09:16:34;97895.78;;;9.47;77.98
55032;BME280;40928;51.076;7.950;2023-04-09T09:19:03;97906.59;;;9.52;76.11
55032;BME280;40928;51.076;7.950;2023-04-09T09:21:28;97895.59;;;9.35;74.30
55032;BME280;40928;51.076;7.950;2023-04-09T09:23:55;97904.44;;;9.16;75.58
55032;BME280;40928;51.076;7.950;2023-04-09T09:26:26;97899.34;;;9.07;76.84
55032;BME280;40928;51.076;7.950;2023-04-09T09:28:53;97893.59;;;9.04;77.50
55032;BME280;40928;51.076;7.950;2023-04-09T09:31:21;97900.75;;;9.17;76.26
55032;BME280;40928;51.076;7.950;2023-04-09T09:33:47;97898.09;;;9.17;76.38
55032;BME280;40928;51.076;7.950;2023-04-09T09:36:15;97896.44;;;9.16;76.38
55032;BME280;40928;51.076;7.950;2023-04-09T09:38:55;97893.59;;;9.17;77.45
55032;BME280;40928;51.076;7.950;2023-04-09T09:41:22;97901.56;;;9.31;77.20
55032;BME280;40928;51.076;7.950;2023-04-09T09:43:49;97896.00;;;9.39;75.72
55032;BME280;40928;51.076;7.950;2023-04-09T09:46:15;97893.91;;;9.48;76.12
55032;BME280;40928;51.076;7.950;2023-04-09T09:48:43;97888.56;;;9.54;75.97
55032;BME280;40928;51.076;7.950;2023-04-09T09:51:14;97890.19;;;9.55;76.53
55032;BME280;40928;51.076;7.950;2023-04-09T09:53:43;97894.28;;;9.58;75.63
55032;BME280;40928;51.076;7.950;2023-04-09T09:56:21;97890.81;;;9.57;75.02
55032;BME280;40928;51.076;7.950;2023-04-09T09:58:55;97892.38;;;9.72;75.06
55032;BME280;40928;51.076;7.950;2023-04-09T10:01:26;97893.78;;;9.81;74.37
55032;BME280;40928;51.076;7.950;2023-04-09T10:03:56;97884.31;;;9.85;75.03
55032;BME280;40928;51.076;7.950;2023-04-09T10:06:27;97882.63;;;9.98;71.46
55032;BME280;40928;51.076;7.950;2023-04-09T10:08:57;97881.03;;;10.22;70.29
55032;BME280;40928;51.076;7.950;2023-04-09T10:11:24;97886.81;;;10.58;69.39
55032;BME280;40928;51.076;7.950;2023-04-09T10:13:56;97880.31;;;10.72;64.13
55032;BME280;40928;51.076;7.950;2023-04-09T10:16:24;97878.00;;;11.57;59.31
55032;BME280;40928;51.076;7.950;2023-04-09T10:18:55;97874.88;;;12.40;55.39
55032;BME280;40928;51.076;7.950;2023-04-09T10:21:41;97887.88;;;12.24;51.90
55032;BME280;40928;51.076;7.950;2023-04-09T10:24:08;97879.75;;;12.00;52.76
55032;BME280;40928;51.076;7.950;2023-04-09T10:26:39;97877.38;;;11.92;54.07
55032;BME280;40928;51.076;7.950;2023-04-09T10:29:07;97875.25;;;11.64;53.47
55032;BME280;40928;51.076;7.950;2023-04-09T10:32:07;97874.44;;;11.26;54.69
55032;BME280;40928;51.076;7.950;2023-04-09T10:34:42;97872.00;;;11.06;55.67
55032;BME280;40928;51.076;7.950;2023-04-09T10:37:29;97863.81;;;10.75;55.93
55032;BME280;40928;51.076;7.950;2023-04-09T10:39:56;97878.34;;;10.61;56.13
55032;BME280;40928;51.076;7.950;2023-04-09T10:42:28;97868.78;;;10.46;57.55
55032;BME280;40928;51.076;7.950;2023-04-09T10:45:08;97861.72;;;10.59;58.73
55032;BME280;40928;51.076;7.950;2023-04-09T10:47:40;97862.28;;;11.49;56.97
55032;BME280;40928;51.076;7.950;2023-04-09T10:50:26;97853.28;;;12.23;53.97
55032;BME280;40928;51.076;7.950;2023-04-09T10:52:53;97859.19;;;12.79;53.33
55032;BME280;40928;51.076;7.950;2023-04-09T10:57:57;97856.50;;;13.27;46.84
55032;BME280;40928;51.076;7.950;2023-04-09T11:00:23;97856.06;;;12.82;48.06
55032;BME280;40928;51.076;7.950;2023-04-09T11:05:47;97842.81;;;13.93;47.99
55032;BME280;40928;51.076;7.950;2023-04-09T11:08:15;97844.81;;;15.17;45.40
55032;BME280;40928;51.076;7.950;2023-04-09T11:10:44;97846.56;;;16.22;41.87
55032;BME280;40928;51.076;7.950;2023-04-09T11:13:13;97835.50;;;17.32;38.05
55032;BME280;40928;51.076;7.950;2023-04-09T11:15:39;97841.53;;;18.60;37.25
55032;BME280;40928;51.076;7.950;2023-04-09T11:18:06;97851.25;;;18.71;36.05
55032;BME280;40928;51.076;7.950;2023-04-09T11:20:37;97836.38;;;18.68;35.95
55032;BME280;40928;51.076;7.950;2023-04-09T11:23:04;97834.19;;;18.60;34.38
55032;BME280;40928;51.076;7.950;2023-04-09T11:25:32;97837.09;;;17.96;36.52
55032;BME280;40928;51.076;7.950;2023-04-09T11:28:06;97831.47;;;18.08;35.62
55032;BME280;40928;51.076;7.950;2023-04-09T11:30:33;97834.56;;;17.59;36.83
55032;BME280;40928;51.076;7.950;2023-04-09T11:33:00;97822.56;;;16.53;37.69
55032;BME280;40928;51.076;7.950;2023-04-09T11:35:26;97827.56;;;17.68;37.31
55032;BME280;40928;51.076;7.950;2023-04-09T11:37:53;97833.56;;;17.91;36.26
55032;BME280;40928;51.076;7.950;2023-04-09T11:40:23;97815.22;;;18.86;34.31
55032;BME280;40928;51.076;7.950;2023-04-09T11:42:51;97828.78;;;19.72;33.15
55032;BME280;40928;51.076;7.950;2023-04-09T11:45:19;97834.75;;;18.57;34.03
55032;BME280;40928;51.076;7.950;2023-04-09T11:47:45;97841.59;;;17.65;34.99
55032;BME280;40928;51.076;7.950;2023-04-09T11:50:12;97842.53;;;16.52;36.54
55032;BME280;40928;51.076;7.950;2023-04-09T11:52:39;97828.59;;;15.34;39.84
55032;BME280;40928;51.076;7.950;2023-04-09T11:55:08;97834.22;;;15.99;39.14
55032;BME280;40928;51.076;7.950;2023-04-09T12:00:07;97832.81;;;15.25;40.66
55032;BME280;40928;51.076;7.950;2023-04-09T12:02:36;97830.59;;;14.65;41.44
55032;BME280;40928;51.076;7.950;2023-04-09T12:05:02;97827.25;;;14.24;41.61
55032;BME280;40928;51.076;7.950;2023-04-09T12:07:34;97820.91;;;14.64;41.83
55032;BME280;40928;51.076;7.950;2023-04-09T12:10:06;97816.25;;;15.55;40.99
55032;BME280;40928;51.076;7.950;2023-04-09T12:12:43;97837.22;;;15.14;40.57
55032;BME280;40928;51.076;7.950;2023-04-09T12:15:23;97833.09;;;14.21;41.81
55032;BME280;40928;51.076;7.950;2023-04-09T12:17:53;97840.59;;;13.61;43.05
55032;BME280;40928;51.076;7.950;2023-04-09T12:20:34;97830.50;;;13.27;43.53
55032;BME280;40928;51.076;7.950;2023-04-09T12:23:02;97831.22;;;13.22;44.99
55032;BME280;40928;51.076;7.950;2023-04-09T12:25:29;97827.75;;;13.63;43.32
55032;BME280;40928;51.076;7.950;2023-04-09T12:27:55;97826.13;;;13.62;42.98
55032;BME280;40928;51.076;7.950;2023-04-09T12:30:22;97816.91;;;13.58;42.67
55032;BME280;40928;51.076;7.950;2023-04-09T12:32:49;97819.81;;;13.68;42.70
55032;BME280;40928;51.076;7.950;2023-04-09T12:35:15;97818.28;;;13.19;42.98
55032;BME280;40928;51.076;7.950;2023-04-09T12:37:41;97816.69;;;12.71;44.35
55032;BME280;40928;51.076;7.950;2023-04-09T12:40:08;97808.97;;;12.39;45.75
55032;BME280;40928;51.076;7.950;2023-04-09T12:42:35;97803.16;;;12.66;46.10
55032;BME280;40928;51.076;7.950;2023-04-09T12:45:00;97801.19;;;12.73;45.39
55032;BME280;40928;51.076;7.950;2023-04-09T12:47:26;97808.19;;;12.62;45.32
55032;BME280;40928;51.076;7.950;2023-04-09T12:49:53;97812.69;;;12.61;45.71
55032;BME280;40928;51.076;7.950;2023-04-09T12:52:18;97800.84;;;12.57;46.25
55032;BME280;40928;51.076;7.950;2023-04-09T12:54:44;97801.88;;;12.44;44.73
55032;BME280;40928;51.076;7.950;2023-04-09T12:57:10;97811.75;;;12.32;45.82
55032;BME280;40928;51.076;7.950;2023-04-09T12:59:36;97801.84;;;12.32;46.34
55032;BME280;40928;51.076;7.950;2023-04-09T13:02:01;97805.47;;;12.26;45.63
55032;BME280;40928;51.076;7.950;2023-04-09T13:04:27;97794.16;;;12.24;45.79
55032;BME280;40928;51.076;7.950;2023-04-09T13:06:53;97811.72;;;12.20;47.06
55032;BME280;40928;51.076;7.950;2023-04-09T13:09:18;97797.66;;;12.13;47.41
55032;BME280;40928;51.076;7.950;2023-04-09T13:11:44;97799.84;;;12.16;47.18
55032;BME280;40928;51.076;7.950;2023-04-09T13:14:10;97791.69;;;12.11;47.23
55032;BME280;40928;51.076;7.950;2023-04-09T13:16:39;97803.63;;;11.96;46.30
55032;BME280;40928;51.076;7.950;2023-04-09T13:19:08;97791.47;;;11.82;47.17
55032;BME280;40928;51.076;7.950;2023-04-09T13:21:34;97790.97;;;12.03;47.37
55032;BME280;40928;51.076;7.950;2023-04-09T13:24:01;97788.56;;;12.26;47.43
55032;BME280;40928;51.076;7.950;2023-04-09T13:26:27;97789.97;;;12.16;46.58